createdAt,value
2019-03-25T00:00:22.242Z,13.10
2019-03-25T00:01:54.678Z,13.10
2019-03-25T00:03:27.091Z,13.10
2019-03-25T00:04:59.503Z,13.10
2019-03-25T00:06:31.943Z,13.20
2019-03-25T00:08:04.419Z,13.20
2019-03-25T00:09:36.823Z,13.20
2019-03-25T00:11:09.189Z,13.20
2019-03-25T00:12:41.667Z,13.20
2019-03-25T00:14:14.089Z,13.20
2019-03-25T00:15:46.503Z,13.20
2019-03-25T00:17:18.990Z,13.20
2019-03-25T00:18:51.390Z,13.20
2019-03-25T00:20:23.790Z,13.20
2019-03-25T00:21:56.228Z,13.20
2019-03-25T00:23:28.705Z,13.20
2019-03-25T00:25:01.047Z,13.20
2019-03-25T00:26:33.460Z,13.20
2019-03-25T00:28:05.956Z,13.20
2019-03-25T00:29:38.294Z,13.20
2019-03-25T00:31:10.806Z,13.20
2019-03-25T00:32:43.294Z,13.20
2019-03-25T00:34:15.706Z,13.30
2019-03-25T00:35:48.113Z,13.30
2019-03-25T00:37:20.607Z,13.20
2019-03-25T00:38:52.952Z,13.20
2019-03-25T00:40:25.427Z,13.20
2019-03-25T00:41:58.059Z,13.20
2019-03-25T00:43:30.394Z,13.20
2019-03-25T00:45:02.812Z,13.10
2019-03-25T00:46:35.144Z,13.10
2019-03-25T00:48:07.503Z,13.10
2019-03-25T00:49:40.004Z,13.10
2019-03-25T00:51:12.470Z,13.10
2019-03-25T00:52:44.904Z,13.20
2019-03-25T00:54:17.329Z,13.20
2019-03-25T00:55:49.803Z,13.20
2019-03-25T00:57:22.160Z,13.30
2019-03-25T00:58:54.653Z,13.30
2019-03-25T01:00:27.147Z,13.30
2019-03-25T01:01:59.481Z,13.30
2019-03-25T01:03:31.908Z,13.30
2019-03-25T01:05:04.398Z,13.30
2019-03-25T01:06:36.804Z,13.30
2019-03-25T01:08:10.008Z,13.30
2019-03-25T01:09:42.439Z,13.40
2019-03-25T01:11:14.772Z,13.40
2019-03-25T01:12:47.198Z,13.30
2019-03-25T01:14:19.618Z,13.30
2019-03-25T01:15:52.025Z,13.30
2019-03-25T01:17:24.463Z,13.30
2019-03-25T01:18:57.051Z,13.30
2019-03-25T01:20:29.502Z,13.30
2019-03-25T01:22:02.043Z,13.30
2019-03-25T01:23:34.458Z,13.20
2019-03-25T01:25:06.797Z,13.20
2019-03-25T01:26:39.210Z,13.20
2019-03-25T01:28:11.567Z,13.20
2019-03-25T01:29:43.975Z,13.10
2019-03-25T01:31:16.459Z,13.10
2019-03-25T01:32:48.890Z,13.10
2019-03-25T01:34:21.239Z,13.10
2019-03-25T01:35:53.678Z,13.10
2019-03-25T01:37:26.165Z,13.10
2019-03-25T01:38:58.514Z,13.10
2019-03-25T01:40:30.921Z,13.00
2019-03-25T01:42:03.328Z,13.00
2019-03-25T01:43:35.754Z,13.00
2019-03-25T01:45:08.241Z,13.00
2019-03-25T01:46:40.657Z,13.00
2019-03-25T01:48:13.073Z,12.90
2019-03-25T01:49:45.575Z,12.90
2019-03-25T01:51:17.975Z,12.90
2019-03-25T01:52:50.317Z,12.90
2019-03-25T01:54:22.814Z,12.90
2019-03-25T01:55:55.306Z,12.90
2019-03-25T01:57:27.646Z,12.90
2019-03-25T01:59:00.010Z,12.90
2019-03-25T02:00:32.417Z,12.90
2019-03-25T02:02:04.747Z,12.90
2019-03-25T02:03:37.087Z,12.90
2019-03-25T02:05:09.519Z,12.90
2019-03-25T02:06:41.859Z,12.90
2019-03-25T02:08:14.266Z,12.90
2019-03-25T02:09:46.691Z,12.90
2019-03-25T02:11:19.033Z,12.90
2019-03-25T02:12:51.539Z,12.80
2019-03-25T02:14:24.030Z,12.90
2019-03-25T02:15:56.459Z,12.80
2019-03-25T02:17:28.850Z,12.80
2019-03-25T02:19:01.259Z,12.80
2019-03-25T02:20:33.682Z,12.80
2019-03-25T02:22:06.101Z,12.80
2019-03-25T02:23:40.695Z,12.80
2019-03-25T02:25:24.552Z,12.80
2019-03-25T02:26:47.156Z,12.80
2019-03-25T02:28:19.643Z,12.80
2019-03-25T02:29:52.062Z,12.80
2019-03-25T02:31:24.559Z,12.80
2019-03-25T02:32:57.033Z,12.80
2019-03-25T02:34:29.375Z,12.80
2019-03-25T02:36:01.872Z,12.80
2019-03-25T02:37:34.384Z,12.80
2019-03-25T02:39:06.747Z,12.70
2019-03-25T02:40:39.204Z,12.80
2019-03-25T02:42:11.658Z,12.80
2019-03-25T02:43:44.075Z,12.80
2019-03-25T02:45:16.494Z,12.80
2019-03-25T02:46:49.005Z,12.80
2019-03-25T02:48:21.341Z,12.80
2019-03-25T02:49:53.776Z,12.80
2019-03-25T02:51:26.186Z,12.70
2019-03-25T02:52:58.621Z,12.70
2019-03-25T02:54:30.965Z,12.70
2019-03-25T02:56:03.460Z,12.60
2019-03-25T02:57:35.896Z,12.60
2019-03-25T02:59:08.375Z,12.60
2019-03-25T03:00:40.726Z,12.60
2019-03-25T03:02:13.149Z,12.50
2019-03-25T03:03:45.656Z,12.50
2019-03-25T03:05:18.142Z,12.50
2019-03-25T03:06:50.552Z,12.50
2019-03-25T03:08:22.988Z,12.50
2019-03-25T03:09:55.408Z,12.50
2019-03-25T03:13:19.378Z,12.50
2019-03-25T03:14:51.774Z,12.50
2019-03-25T03:16:24.191Z,12.40
2019-03-25T03:17:56.529Z,12.40
2019-03-25T03:19:28.889Z,12.40
2019-03-25T03:21:01.375Z,12.40
2019-03-25T03:22:33.791Z,12.40
2019-03-25T03:24:06.215Z,12.40
2019-03-25T03:25:38.630Z,12.40
2019-03-25T03:27:10.975Z,12.40
2019-03-25T03:28:43.469Z,12.40
2019-03-25T03:30:15.965Z,12.30
2019-03-25T03:31:48.400Z,12.30
2019-03-25T03:33:20.896Z,12.30
2019-03-25T03:34:53.374Z,12.30
2019-03-25T03:36:25.791Z,12.20
2019-03-25T03:37:59.182Z,12.20
2019-03-25T03:39:31.690Z,12.10
2019-03-25T03:41:04.372Z,12.00
2019-03-25T03:42:36.699Z,12.00
2019-03-25T03:44:09.219Z,12.00
2019-03-25T03:45:41.630Z,11.90
2019-03-25T03:47:14.101Z,11.90
2019-03-25T03:48:46.624Z,11.80
2019-03-25T03:50:19.041Z,11.80
2019-03-25T03:51:51.559Z,11.80
2019-03-25T03:53:24.123Z,11.70
2019-03-25T03:54:56.491Z,11.70
2019-03-25T03:56:28.988Z,11.70
2019-03-25T03:58:01.771Z,11.60
2019-03-25T03:59:34.131Z,11.60
2019-03-25T04:01:06.551Z,11.50
2019-03-25T04:02:40.495Z,11.50
2019-03-25T04:04:12.861Z,11.50
2019-03-25T04:05:45.274Z,11.50
2019-03-25T04:07:17.743Z,11.50
2019-03-25T04:08:50.171Z,11.50
2019-03-25T04:10:22.672Z,11.60
2019-03-25T04:11:55.257Z,11.60
2019-03-25T04:13:27.672Z,11.60
2019-03-25T04:15:00.381Z,11.50
2019-03-25T04:16:32.953Z,11.50
2019-03-25T04:18:05.356Z,11.50
2019-03-25T04:19:37.790Z,11.50
2019-03-25T04:21:10.275Z,11.60
2019-03-25T04:22:42.689Z,11.50
2019-03-25T04:24:15.182Z,11.50
2019-03-25T04:25:47.654Z,11.50
2019-03-25T04:27:20.130Z,11.50
2019-03-25T04:28:52.532Z,11.50
2019-03-25T04:30:24.960Z,11.50
2019-03-25T04:31:57.296Z,11.50
2019-03-25T04:33:29.779Z,11.50
2019-03-25T04:35:02.282Z,11.50
2019-03-25T04:36:34.692Z,11.40
2019-03-25T04:38:07.103Z,11.40
2019-03-25T04:39:39.608Z,11.40
2019-03-25T04:41:11.952Z,11.30
2019-03-25T04:42:44.360Z,11.30
2019-03-25T04:44:16.830Z,11.30
2019-03-25T04:45:49.196Z,11.30
2019-03-25T04:47:21.682Z,11.30
2019-03-25T04:48:54.101Z,11.20
2019-03-25T04:50:26.532Z,11.20
2019-03-25T04:51:58.950Z,11.20
2019-03-25T04:53:31.432Z,11.20
2019-03-25T04:55:03.859Z,11.10
2019-03-25T04:56:39.870Z,11.10
2019-03-25T04:58:10.373Z,11.10
2019-03-25T04:59:42.747Z,11.00
2019-03-25T05:01:15.231Z,10.90
2019-03-25T05:02:47.572Z,10.90
2019-03-25T05:04:19.921Z,10.90
2019-03-25T05:05:52.416Z,10.80
2019-03-25T05:07:24.832Z,10.80
2019-03-25T05:08:57.239Z,10.80
2019-03-25T05:10:30.239Z,10.70
2019-03-25T05:12:02.894Z,10.70
2019-03-25T05:13:35.327Z,10.70
2019-03-25T05:15:07.852Z,10.70
2019-03-25T05:16:40.389Z,10.60
2019-03-25T05:18:12.835Z,10.60
2019-03-25T05:19:45.393Z,10.60
2019-03-25T05:21:17.851Z,10.50
2019-03-25T05:22:50.214Z,10.50
2019-03-25T05:24:22.719Z,10.40
2019-03-25T05:25:55.156Z,10.40
2019-03-25T05:27:27.559Z,10.40
2019-03-25T05:29:00.293Z,10.40
2019-03-25T05:30:33.771Z,10.40
2019-03-25T05:32:06.227Z,10.40
2019-03-25T05:33:38.702Z,10.40
2019-03-25T05:35:14.360Z,10.30
2019-03-25T05:36:49.715Z,10.30
2019-03-25T05:38:22.116Z,10.30
2019-03-25T05:39:54.526Z,10.30
2019-03-25T05:41:57.728Z,10.30
2019-03-25T05:43:15.595Z,10.30
2019-03-25T05:44:50.263Z,10.30
2019-03-25T05:46:22.708Z,10.30
2019-03-25T05:48:13.570Z,10.30
2019-03-25T05:49:46.678Z,10.20
2019-03-25T05:51:19.191Z,10.30
2019-03-25T05:52:51.649Z,10.30
2019-03-25T05:54:24.076Z,10.30
2019-03-25T05:55:56.598Z,10.40
2019-03-25T05:57:29.082Z,10.30
2019-03-25T05:59:01.444Z,10.30
2019-03-25T06:00:34.061Z,10.40
2019-03-25T06:02:08.111Z,10.40
2019-03-25T06:03:40.476Z,10.40
2019-03-25T06:05:14.383Z,10.40
2019-03-25T06:06:47.519Z,10.40
2019-03-25T06:08:19.970Z,10.50
2019-03-25T06:09:52.515Z,10.50
2019-03-25T06:11:25.029Z,10.50
2019-03-25T06:12:57.466Z,10.50
2019-03-25T06:14:29.878Z,10.50
2019-03-25T06:16:02.371Z,10.50
2019-03-25T06:17:34.751Z,10.50
2019-03-25T06:19:07.240Z,10.50
2019-03-25T06:20:39.670Z,10.50
2019-03-25T06:22:12.039Z,10.50
2019-03-25T06:23:44.443Z,10.50
2019-03-25T06:25:17.016Z,10.50
2019-03-25T06:26:49.523Z,10.50
2019-03-25T06:28:21.947Z,10.60
2019-03-25T06:29:54.445Z,10.60
2019-03-25T06:31:26.840Z,10.60
2019-03-25T06:32:59.259Z,10.60
2019-03-25T06:34:31.695Z,10.60
2019-03-25T06:36:04.326Z,10.60
2019-03-25T06:37:36.850Z,10.60
2019-03-25T06:39:09.342Z,10.60
2019-03-25T06:40:41.696Z,10.60
2019-03-25T06:42:14.353Z,10.60
2019-03-25T06:43:46.807Z,10.60
2019-03-25T06:45:19.142Z,10.60
2019-03-25T06:46:53.215Z,10.60
2019-03-25T06:48:25.902Z,10.60
2019-03-25T06:49:58.262Z,10.50
2019-03-25T06:51:30.751Z,10.50
2019-03-25T06:53:03.550Z,10.50
2019-03-25T06:54:35.915Z,10.50
2019-03-25T06:56:08.511Z,10.50
2019-03-25T06:57:41.116Z,10.50
2019-03-25T06:59:13.681Z,10.50
2019-03-25T07:00:46.158Z,10.50
2019-03-25T07:02:18.643Z,10.50
2019-03-25T07:03:51.115Z,10.50
2019-03-25T07:05:23.591Z,10.50
2019-03-25T07:06:56.070Z,10.50
2019-03-25T07:08:28.483Z,10.50
2019-03-25T07:10:00.924Z,10.40
2019-03-25T07:11:33.326Z,10.40
2019-03-25T07:13:05.679Z,10.40
2019-03-25T07:14:38.151Z,10.40
2019-03-25T07:16:10.573Z,10.30
2019-03-25T07:17:42.909Z,10.30
2019-03-25T07:19:15.323Z,10.30
2019-03-25T07:20:47.819Z,10.20
2019-03-25T07:22:20.280Z,10.20
2019-03-25T07:23:52.750Z,10.20
2019-03-25T07:25:28.477Z,10.10
2019-03-25T07:27:00.856Z,10.00
2019-03-25T07:28:33.435Z,10.00
2019-03-25T07:30:05.933Z,10.00
2019-03-25T07:31:38.372Z,10.00
2019-03-25T07:33:10.780Z,10.00
2019-03-25T07:34:46.560Z,10.10
2019-03-25T07:36:19.132Z,10.10
2019-03-25T07:37:51.498Z,10.20
2019-03-25T07:41:33.491Z,10.20
2019-03-25T07:43:21.340Z,10.20
2019-03-25T07:44:53.825Z,10.20
2019-03-25T07:46:29.474Z,10.10
2019-03-25T07:48:04.063Z,10.10
2019-03-25T07:49:36.055Z,10.10
2019-03-25T07:51:08.535Z,10.10
2019-03-25T07:52:40.898Z,10.00
2019-03-25T07:54:13.310Z,10.00
2019-03-25T07:55:45.872Z,10.00
2019-03-25T07:57:20.703Z,10.00
2019-03-25T07:58:53.070Z,10.00
2019-03-25T08:00:25.550Z,10.00
2019-03-25T08:01:57.942Z,10.00
2019-03-25T08:03:30.381Z,10.00
2019-03-25T08:05:02.769Z,10.00
2019-03-25T08:06:35.138Z,10.00
2019-03-25T08:08:07.619Z,10.10
2019-03-25T08:09:40.027Z,10.10
2019-03-25T08:11:12.420Z,10.10
2019-03-25T08:12:45.110Z,10.10
2019-03-25T08:14:17.580Z,10.20
2019-03-25T08:15:50.087Z,10.20
2019-03-25T08:17:22.543Z,10.10
2019-03-25T08:18:55.043Z,10.10
2019-03-25T08:20:27.484Z,10.10
2019-03-25T08:22:01.278Z,10.10
2019-03-25T08:23:34.051Z,10.20
2019-03-25T08:25:06.862Z,10.20
2019-03-25T08:26:39.432Z,10.20
2019-03-25T08:28:12.743Z,10.20
2019-03-25T08:29:45.216Z,10.30
2019-03-25T08:31:17.807Z,10.30
2019-03-25T08:32:50.210Z,10.30
2019-03-25T08:34:22.899Z,10.30
2019-03-25T08:35:55.446Z,10.30
2019-03-25T08:37:27.850Z,10.30
2019-03-25T08:39:00.202Z,10.30
2019-03-25T08:40:32.563Z,10.30
2019-03-25T08:42:05.059Z,10.30
2019-03-25T08:43:37.483Z,10.30
2019-03-25T08:45:09.915Z,10.40
2019-03-25T08:46:42.405Z,10.40
2019-03-25T08:48:14.820Z,10.40
2019-03-25T08:49:47.234Z,10.40
2019-03-25T08:51:20.537Z,10.40
2019-03-25T08:52:52.884Z,10.40
2019-03-25T08:54:25.355Z,10.40
2019-03-25T08:55:57.982Z,10.40
2019-03-25T08:57:30.326Z,10.40
2019-03-25T08:59:02.659Z,10.50
2019-03-25T09:00:35.161Z,10.50
2019-03-25T09:02:07.567Z,10.50
2019-03-25T09:03:39.970Z,10.50
2019-03-25T09:05:12.299Z,10.60
2019-03-25T09:06:44.646Z,10.60
2019-03-25T09:08:17.135Z,10.70
2019-03-25T09:09:49.535Z,10.70
2019-03-25T09:11:21.890Z,10.70
2019-03-25T09:12:54.315Z,10.70
2019-03-25T09:14:26.729Z,10.80
2019-03-25T09:15:59.134Z,10.80
2019-03-25T09:17:31.596Z,10.80
2019-03-25T09:19:04.275Z,10.90
2019-03-25T09:20:36.741Z,10.80
2019-03-25T09:22:09.934Z,10.90
2019-03-25T09:23:42.371Z,10.90
2019-03-25T09:25:14.779Z,10.90
2019-03-25T09:26:47.185Z,10.90
2019-03-25T09:28:24.406Z,10.90
2019-03-25T09:29:53.797Z,10.90
2019-03-25T09:31:36.377Z,10.90
2019-03-25T09:33:00.347Z,10.90
2019-03-25T09:34:32.679Z,10.90
2019-03-25T09:36:05.123Z,10.90
2019-03-25T09:37:37.846Z,10.90
2019-03-25T09:39:10.187Z,11.00
2019-03-25T09:40:42.659Z,11.00
2019-03-25T09:42:15.062Z,10.90
2019-03-25T09:43:47.431Z,10.90
2019-03-25T09:45:19.928Z,10.90
2019-03-25T09:46:52.679Z,10.90
2019-03-25T09:48:25.043Z,10.80
2019-03-25T09:49:57.470Z,10.80
2019-03-25T09:51:29.991Z,10.80
2019-03-25T09:53:02.399Z,10.70
2019-03-25T09:54:34.832Z,10.70
2019-03-25T09:56:07.312Z,10.70
2019-03-25T09:57:39.724Z,10.60
2019-03-25T09:59:24.117Z,10.60
2019-03-25T10:00:57.611Z,10.60
2019-03-25T10:02:32.189Z,10.60
2019-03-25T10:04:16.285Z,10.60
2019-03-25T10:05:49.476Z,10.50
2019-03-25T10:07:21.951Z,10.50
2019-03-25T10:08:54.613Z,10.40
2019-03-25T10:10:27.072Z,10.40
2019-03-25T10:11:59.564Z,10.40
2019-03-25T10:13:31.983Z,10.40
2019-03-25T10:15:04.662Z,10.30
2019-03-25T10:16:37.137Z,10.30
2019-03-25T10:18:09.561Z,10.20
2019-03-25T10:19:42.435Z,10.20
2019-03-25T10:21:14.929Z,10.20
2019-03-25T10:22:47.343Z,10.20
2019-03-25T10:24:27.408Z,10.20
2019-03-25T10:25:53.985Z,10.20
2019-03-25T10:27:26.423Z,10.20
2019-03-25T10:28:58.881Z,10.20
2019-03-25T10:30:31.613Z,10.30
2019-03-25T10:32:04.084Z,10.30
2019-03-25T10:33:36.491Z,10.40
2019-03-25T10:35:08.923Z,10.50
2019-03-25T10:36:41.382Z,10.60
2019-03-25T10:38:19.505Z,10.60
2019-03-25T10:39:47.959Z,10.70
2019-03-25T10:41:20.368Z,10.80
2019-03-25T10:42:52.895Z,10.90
2019-03-25T10:44:25.375Z,11.00
2019-03-25T10:45:57.781Z,11.10
2019-03-25T10:47:30.217Z,11.10
2019-03-25T10:49:02.558Z,11.20
2019-03-25T10:50:35.050Z,11.30
2019-03-25T10:52:07.393Z,11.30
2019-03-25T10:53:39.808Z,11.30
2019-03-25T10:55:12.149Z,11.30
2019-03-25T10:56:49.177Z,11.30
2019-03-25T10:58:18.748Z,11.30
2019-03-25T10:59:51.087Z,11.40
2019-03-25T11:01:23.563Z,11.40
2019-03-25T11:02:55.921Z,11.40
2019-03-25T11:04:28.263Z,11.50
2019-03-25T11:06:00.659Z,11.50
2019-03-25T11:07:33.213Z,11.50
2019-03-25T11:09:05.956Z,11.50
2019-03-25T11:10:38.424Z,11.60
2019-03-25T11:12:10.826Z,11.60
2019-03-25T11:13:43.211Z,11.70
2019-03-25T11:15:15.777Z,11.70
2019-03-25T11:16:48.192Z,11.80
2019-03-25T11:18:20.609Z,11.90
2019-03-25T11:19:53.036Z,11.90
2019-03-25T11:21:25.516Z,12.00
2019-03-25T11:22:57.870Z,12.00
2019-03-25T11:24:30.311Z,12.10
2019-03-25T11:26:02.715Z,12.10
2019-03-25T11:27:35.111Z,12.10
2019-03-25T11:29:08.525Z,12.00
2019-03-25T11:30:41.416Z,12.00
2019-03-25T11:32:13.826Z,12.00
2019-03-25T11:33:46.182Z,12.00
2019-03-25T11:35:18.526Z,12.00
2019-03-25T11:36:50.939Z,12.00
2019-03-25T11:38:23.282Z,12.00
2019-03-25T11:39:56.079Z,12.10
2019-03-25T11:41:28.422Z,12.20
2019-03-25T11:43:00.907Z,12.20
2019-03-25T11:44:33.326Z,12.20
2019-03-25T11:46:05.668Z,12.30
2019-03-25T11:47:38.069Z,12.30
2019-03-25T11:49:10.502Z,12.30
2019-03-25T11:50:42.923Z,12.30
2019-03-25T11:52:15.410Z,12.30
2019-03-25T11:53:47.837Z,12.40
2019-03-25T11:55:20.246Z,12.30
2019-03-25T11:56:52.642Z,12.30
2019-03-25T11:58:25.042Z,12.30
2019-03-25T11:59:57.402Z,12.20
2019-03-25T12:01:29.886Z,12.20
2019-03-25T12:03:02.237Z,12.20
2019-03-25T12:04:34.674Z,12.20
2019-03-25T12:06:07.145Z,12.20
2019-03-25T12:07:39.542Z,12.20
2019-03-25T12:09:11.912Z,12.20
2019-03-25T12:10:44.514Z,12.20
2019-03-25T12:12:16.913Z,12.10
2019-03-25T12:13:49.248Z,12.10
2019-03-25T12:15:21.662Z,11.90
2019-03-25T12:16:54.063Z,11.90
2019-03-25T12:18:26.470Z,11.80
2019-03-25T12:19:58.966Z,11.70
2019-03-25T12:21:31.367Z,11.60
2019-03-25T12:23:03.775Z,11.50
2019-03-25T12:24:36.278Z,11.50
2019-03-25T12:26:08.957Z,11.50
2019-03-25T12:27:41.293Z,11.40
2019-03-25T12:29:13.790Z,11.40
2019-03-25T12:30:46.126Z,11.40
2019-03-25T12:32:18.464Z,11.60
2019-03-25T12:33:50.886Z,11.90
2019-03-25T12:35:23.404Z,12.20
2019-03-25T12:36:55.820Z,12.50
2019-03-25T12:38:28.535Z,12.80
2019-03-25T12:40:01.135Z,13.10
2019-03-25T12:41:33.702Z,13.50
2019-03-25T12:43:06.122Z,13.90
2019-03-25T12:44:38.923Z,14.40
2019-03-25T12:46:11.368Z,14.70
2019-03-25T12:47:44.189Z,14.70
2019-03-25T12:49:16.942Z,14.70
2019-03-25T12:50:49.621Z,14.70
2019-03-25T12:52:22.773Z,14.60
2019-03-25T12:53:55.192Z,14.60
2019-03-25T12:55:27.875Z,14.50
2019-03-25T12:57:00.303Z,14.40
2019-03-25T12:58:32.782Z,14.20
2019-03-25T13:00:05.263Z,14.10
2019-03-25T13:01:37.772Z,13.80
2019-03-25T13:03:10.336Z,13.60
2019-03-25T13:04:42.793Z,13.30
2019-03-25T13:06:15.629Z,13.10
2019-03-25T13:07:48.678Z,12.90
2019-03-25T13:09:21.134Z,12.70
2019-03-25T13:10:53.752Z,12.50
2019-03-25T13:12:27.006Z,12.30
2019-03-25T13:13:59.442Z,12.10
2019-03-25T13:15:32.408Z,12.00
2019-03-25T13:17:05.189Z,11.80
2019-03-25T13:18:37.844Z,11.70
2019-03-25T13:20:10.986Z,11.60
2019-03-25T13:21:44.117Z,11.50
2019-03-25T13:23:16.566Z,11.40
2019-03-25T13:24:49.358Z,11.30
2019-03-25T13:26:21.815Z,11.20
2019-03-25T13:27:54.168Z,11.20
2019-03-25T13:29:26.601Z,11.30
2019-03-25T13:30:59.062Z,11.30
2019-03-25T13:32:31.431Z,11.40
2019-03-25T13:34:03.911Z,11.40
2019-03-25T13:35:36.352Z,11.30
2019-03-25T13:37:09.170Z,11.30
2019-03-25T13:38:41.808Z,11.30
2019-03-25T13:40:14.732Z,11.30
2019-03-25T13:41:47.376Z,11.30
2019-03-25T13:43:20.021Z,11.20
2019-03-25T13:44:55.473Z,11.20
2019-03-25T13:46:26.885Z,11.20
2019-03-25T13:47:59.720Z,11.30
2019-03-25T13:49:32.455Z,11.30
2019-03-25T13:51:04.991Z,11.30
2019-03-25T13:52:37.778Z,11.30
2019-03-25T13:54:10.783Z,11.30
2019-03-25T13:55:43.543Z,11.30
2019-03-25T13:57:16.602Z,11.30
2019-03-25T13:58:49.336Z,11.30
2019-03-25T14:00:25.000Z,11.30
2019-03-25T14:01:58.116Z,11.30
2019-03-25T14:03:30.907Z,11.30
2019-03-25T14:05:03.719Z,11.20
2019-03-25T14:06:36.215Z,11.20
2019-03-25T14:08:08.903Z,11.10
2019-03-25T14:09:41.624Z,11.00
2019-03-25T14:11:14.679Z,10.90
2019-03-25T14:12:47.558Z,10.80
2019-03-25T14:14:20.090Z,10.70
2019-03-25T14:15:53.072Z,10.60
2019-03-25T14:17:26.022Z,10.60
2019-03-25T14:18:58.545Z,10.50
2019-03-25T14:20:31.271Z,10.40
2019-03-25T14:22:04.832Z,10.40
2019-03-25T14:23:37.273Z,10.40
2019-03-25T14:25:10.267Z,10.30
2019-03-25T14:26:42.802Z,10.30
2019-03-25T14:28:15.279Z,10.20
2019-03-25T14:29:47.834Z,10.20
2019-03-25T14:31:20.834Z,10.10
2019-03-25T14:32:53.809Z,10.10
2019-03-25T14:34:26.306Z,10.10
2019-03-25T14:35:59.229Z,10.20
2019-03-25T14:37:31.622Z,10.30
2019-03-25T14:39:04.484Z,10.50
2019-03-25T14:40:37.290Z,10.50
2019-03-25T14:42:09.833Z,10.50
2019-03-25T14:43:42.435Z,10.50
2019-03-25T14:45:25.871Z,10.40
2019-03-25T14:46:49.342Z,10.20
2019-03-25T14:48:22.221Z,10.10
2019-03-25T14:49:54.875Z,9.90
2019-03-25T14:51:27.599Z,9.80
2019-03-25T14:53:00.415Z,9.60
2019-03-25T14:54:33.283Z,9.50
2019-03-25T14:56:05.868Z,9.30
2019-03-25T14:57:38.842Z,9.20
2019-03-25T14:59:11.795Z,9.10
2019-03-25T15:00:44.293Z,8.90
2019-03-25T15:02:16.775Z,8.80
2019-03-25T15:03:50.015Z,8.70
2019-03-25T15:05:22.717Z,8.60
2019-03-25T15:06:55.597Z,8.50
2019-03-25T15:08:28.143Z,8.40
2019-03-25T15:10:01.044Z,8.30
2019-03-25T15:11:33.917Z,8.20
2019-03-25T15:13:06.632Z,8.20
2019-03-25T15:14:39.251Z,8.10
2019-03-25T15:16:13.395Z,8.00
2019-03-25T15:17:46.280Z,8.00
2019-03-25T15:19:19.063Z,8.00
2019-03-25T15:20:51.537Z,7.90
2019-03-25T15:22:24.110Z,7.90
2019-03-25T15:23:56.698Z,8.00
2019-03-25T15:25:29.242Z,8.00
2019-03-25T15:27:01.739Z,8.00
2019-03-25T15:28:34.539Z,8.10
2019-03-25T15:30:07.546Z,8.20
2019-03-25T15:31:43.041Z,8.20
2019-03-25T15:33:18.621Z,8.30
2019-03-25T15:34:51.162Z,8.40
2019-03-25T15:36:24.145Z,8.50
2019-03-25T15:37:56.637Z,8.50
2019-03-25T15:39:29.333Z,8.60
2019-03-25T15:41:02.068Z,8.70
2019-03-25T15:42:34.652Z,8.80
2019-03-25T15:44:07.187Z,8.90
2019-03-25T15:45:40.698Z,8.90
2019-03-25T15:47:13.296Z,9.00
2019-03-25T15:48:45.707Z,9.00
2019-03-25T15:50:18.091Z,9.10
2019-03-25T15:51:50.622Z,9.10
2019-03-25T15:53:23.096Z,9.10
2019-03-25T15:54:55.622Z,9.20
2019-03-25T15:56:28.038Z,9.20
2019-03-25T15:58:00.751Z,9.20
2019-03-25T15:59:33.208Z,9.20
2019-03-25T16:01:05.659Z,9.30
2019-03-25T16:02:38.159Z,9.30
2019-03-25T16:04:10.622Z,9.30
2019-03-25T16:05:42.990Z,9.30
2019-03-25T16:07:15.443Z,9.20
2019-03-25T16:08:47.773Z,9.20
2019-03-25T16:10:20.104Z,9.10
2019-03-25T16:11:52.836Z,9.00
2019-03-25T16:13:25.423Z,9.00
2019-03-25T16:14:57.906Z,8.90
2019-03-25T16:16:30.367Z,8.90
2019-03-25T16:18:02.781Z,8.80
2019-03-25T16:19:35.119Z,8.80
2019-03-25T16:21:07.541Z,8.80
2019-03-25T16:22:40.060Z,8.80
2019-03-25T16:24:12.439Z,8.80
2019-03-25T16:25:44.838Z,8.80
2019-03-25T16:27:17.261Z,8.70
2019-03-25T16:28:49.842Z,8.70
2019-03-25T16:30:22.370Z,8.70
2019-03-25T16:31:55.148Z,8.60
2019-03-25T16:33:27.498Z,8.60
2019-03-25T16:34:59.906Z,8.50
2019-03-25T16:36:32.552Z,8.50
2019-03-25T16:38:04.919Z,8.40
2019-03-25T16:39:37.311Z,8.30
2019-03-25T16:41:09.904Z,8.20
2019-03-25T16:42:42.244Z,8.00
2019-03-25T16:44:14.682Z,7.90
2019-03-25T16:45:47.442Z,7.80
2019-03-25T16:47:19.835Z,7.60
2019-03-25T16:48:52.262Z,7.50
2019-03-25T16:50:24.709Z,7.30
2019-03-25T16:51:57.035Z,7.20
2019-03-25T16:53:29.457Z,7.10
2019-03-25T16:55:01.855Z,7.00
2019-03-25T16:56:34.187Z,7.00
2019-03-25T16:58:06.682Z,6.90
2019-03-25T16:59:40.602Z,6.90
2019-03-25T17:01:13.236Z,6.90
2019-03-25T17:02:45.762Z,6.80
2019-03-25T17:04:18.156Z,6.80
2019-03-25T17:05:50.486Z,6.80
2019-03-25T17:07:22.959Z,6.80
2019-03-25T17:08:55.451Z,6.80
2019-03-25T17:10:27.782Z,6.80
2019-03-25T17:12:00.243Z,6.80
2019-03-25T17:13:32.660Z,6.80
2019-03-25T17:15:05.050Z,6.70
2019-03-25T17:16:37.447Z,6.70
2019-03-25T17:18:09.863Z,6.70
2019-03-25T17:19:42.287Z,6.70
2019-03-25T17:21:14.758Z,6.70
2019-03-25T17:22:47.255Z,6.70
2019-03-25T17:24:19.599Z,6.70
2019-03-25T17:25:53.265Z,6.70
2019-03-25T17:27:25.862Z,6.80
2019-03-25T17:28:58.285Z,6.80
2019-03-25T17:30:30.692Z,6.80
2019-03-25T17:32:03.168Z,6.80
2019-03-25T17:33:35.587Z,6.80
2019-03-25T17:35:07.986Z,6.90
2019-03-25T17:36:40.394Z,6.90
2019-03-25T17:38:12.774Z,6.90
2019-03-25T17:39:45.125Z,6.90
2019-03-25T17:41:17.461Z,7.00
2019-03-25T17:42:49.863Z,7.00
2019-03-25T17:44:22.203Z,7.00
2019-03-25T17:45:54.607Z,7.00
2019-03-25T17:47:26.999Z,7.10
2019-03-25T17:48:59.470Z,7.10
2019-03-25T17:50:33.250Z,7.10
2019-03-25T17:52:05.781Z,7.10
2019-03-25T17:53:38.250Z,7.10
2019-03-25T17:55:10.590Z,7.10
2019-03-25T17:56:42.919Z,7.10
2019-03-25T17:58:15.317Z,7.10
2019-03-25T17:59:47.803Z,7.10
2019-03-25T18:01:20.147Z,7.10
2019-03-25T18:02:52.543Z,7.10
2019-03-25T18:04:25.040Z,7.10
2019-03-25T18:05:57.752Z,7.10
2019-03-25T18:07:30.413Z,7.10
2019-03-25T18:09:02.892Z,7.10
2019-03-25T18:10:35.864Z,7.00
2019-03-25T18:12:08.561Z,7.00
2019-03-25T18:13:40.958Z,7.00
2019-03-25T18:15:13.291Z,7.00
2019-03-25T18:16:45.739Z,7.00
2019-03-25T18:18:18.130Z,6.90
2019-03-25T18:19:50.622Z,6.90
2019-03-25T18:21:23.019Z,6.90
2019-03-25T18:22:55.483Z,6.90
2019-03-25T18:24:27.877Z,6.80
2019-03-25T18:26:00.279Z,6.80
2019-03-25T18:27:32.770Z,6.80
2019-03-25T18:29:05.094Z,6.80
2019-03-25T18:30:37.555Z,6.80
2019-03-25T18:32:10.196Z,6.70
2019-03-25T18:33:42.663Z,6.70
2019-03-25T18:35:15.062Z,6.70
2019-03-25T18:36:47.520Z,6.70
2019-03-25T18:38:19.870Z,6.70
2019-03-25T18:39:52.274Z,6.70
2019-03-25T18:41:24.663Z,6.70
2019-03-25T18:42:57.018Z,6.60
2019-03-25T18:44:29.349Z,6.60
2019-03-25T18:46:01.743Z,6.50
2019-03-25T18:47:34.171Z,6.50
2019-03-25T18:49:06.634Z,6.50
2019-03-25T18:50:39.038Z,6.40
2019-03-25T18:52:11.467Z,6.40
2019-03-25T18:53:44.033Z,6.30
2019-03-25T18:55:16.430Z,6.30
2019-03-25T18:56:48.774Z,6.30
2019-03-25T18:58:21.396Z,6.30
2019-03-25T18:59:54.065Z,6.30
2019-03-25T19:01:29.658Z,6.30
2019-03-25T19:03:02.099Z,6.30
2019-03-25T19:04:34.548Z,6.30
2019-03-25T19:06:06.947Z,6.20
2019-03-25T19:07:39.380Z,6.20
2019-03-25T19:09:11.798Z,6.30
2019-03-25T19:10:44.273Z,6.30
2019-03-25T19:12:16.719Z,6.30
2019-03-25T19:13:49.213Z,6.30
2019-03-25T19:15:21.602Z,6.30
2019-03-25T19:16:54.023Z,6.30
2019-03-25T19:18:26.497Z,6.30
2019-03-25T19:19:58.848Z,6.30
2019-03-25T19:21:31.378Z,6.30
2019-03-25T19:23:03.858Z,6.30
2019-03-25T19:24:36.256Z,6.30
2019-03-25T19:26:08.736Z,6.30
2019-03-25T19:27:41.222Z,6.30
2019-03-25T19:29:13.647Z,6.40
2019-03-25T19:30:46.137Z,6.40
2019-03-25T19:32:18.510Z,6.40
2019-03-25T19:33:50.917Z,6.30
2019-03-25T19:35:23.444Z,6.30
2019-03-25T19:36:55.914Z,6.30
2019-03-25T19:38:28.367Z,6.30
2019-03-25T19:40:00.751Z,6.30
2019-03-25T19:41:33.206Z,6.30
2019-03-25T19:43:05.618Z,6.30
2019-03-25T19:44:38.400Z,6.30
2019-03-25T19:46:10.803Z,6.20
2019-03-25T19:47:43.454Z,6.20
2019-03-25T19:49:15.930Z,6.20
2019-03-25T19:50:48.344Z,6.20
2019-03-25T19:52:20.758Z,6.10
2019-03-25T19:53:53.200Z,6.10
2019-03-25T19:55:25.635Z,6.10
2019-03-25T19:56:58.072Z,6.10
2019-03-25T19:58:30.466Z,6.10
2019-03-25T20:00:02.955Z,6.10
2019-03-25T20:01:35.650Z,6.00
2019-03-25T20:03:08.146Z,6.00
2019-03-25T20:04:40.540Z,6.00
2019-03-25T20:06:12.936Z,6.00
2019-03-25T20:07:45.331Z,6.00